Golden Gate, Illinois
Current Conditions -  °F | °C
As of 3:55 AM on Friday 31 Oct 2014 (Local Time) from KFWC Reporting Station
Overcast Overcast  
Wind Chill: 47°   Ceiling: 4800
Heat Index: 47°   Visibility: 10mi
Dew Point: 46°   Wind: 3mph
Humidity: 93%   Direction: 360°N
Pressure: 30.02"   Gusts: NA
Location:  38.36°N, 88.2°W
Report Text: KFWC 310855Z AUTO 36003KT 10SM BKN048 OVC070 09/08 A3002 RMK AO1 T00850075
Loading
Personal Weather Stations






























Interactive Weather Map
Tropical Storm Tracking
New forecast layout! Learn more

10-Day Weather Forecast

Advertisements
Track Severe Weather on mobile